createdAt,value
2023-04-16T00:02:40.098Z,69.75
2023-04-16T00:05:47.203Z,69.79
2023-04-16T00:08:53.050Z,69.89
2023-04-16T00:11:59.911Z,69.88
2023-04-16T00:15:05.148Z,69.83
2023-04-16T00:18:12.483Z,69.92
2023-04-16T00:21:17.997Z,69.92
2023-04-16T00:24:23.912Z,69.89
2023-04-16T00:27:30.047Z,69.89
2023-04-16T00:30:36.972Z,69.88
2023-04-16T00:33:44.967Z,69.82
2023-04-16T00:36:51.666Z,69.73
2023-04-16T00:39:57.854Z,69.59
2023-04-16T00:43:04.393Z,69.64
2023-04-16T00:46:11.510Z,69.73
2023-04-16T00:49:19.065Z,69.68
2023-04-16T00:52:25.099Z,69.66
2023-04-16T00:55:31.856Z,69.63
2023-04-16T00:58:38.069Z,69.76
2023-04-16T01:01:44.451Z,69.84
2023-04-16T01:04:51.897Z,69.80
2023-04-16T01:07:58.694Z,69.83
2023-04-16T01:11:04.570Z,69.76
2023-04-16T01:14:11.080Z,69.65
2023-04-16T01:17:18.755Z,69.66
2023-04-16T01:20:24.676Z,69.69
2023-04-16T01:23:29.900Z,69.70
2023-04-16T01:26:35.432Z,69.73
2023-04-16T01:29:40.709Z,69.76
2023-04-16T01:32:48.727Z,69.76
2023-04-16T01:35:55.393Z,69.75
2023-04-16T01:39:02.215Z,69.81
2023-04-16T01:42:08.616Z,69.76
2023-04-16T01:45:14.944Z,69.67
2023-04-16T01:48:20.346Z,69.68
2023-04-16T01:51:25.699Z,69.78
2023-04-16T01:54:32.344Z,69.81
2023-04-16T01:57:37.317Z,69.76
2023-04-16T02:00:43.055Z,69.69
2023-04-16T02:03:49.016Z,69.72
2023-04-16T02:06:57.456Z,69.75
2023-04-16T02:10:04.215Z,69.92
2023-04-16T02:13:10.520Z,69.86
2023-04-16T02:16:18.831Z,69.77
2023-04-16T02:19:26.334Z,69.80
2023-04-16T02:22:32.108Z,69.90
2023-04-16T02:25:37.858Z,69.80
2023-04-16T02:28:45.138Z,69.77
2023-04-16T02:31:51.405Z,69.77
2023-04-16T02:34:58.546Z,69.86
2023-04-16T02:38:03.658Z,69.81
2023-04-16T02:41:08.542Z,69.78
2023-04-16T02:44:13.661Z,69.83
2023-04-16T02:47:19.659Z,69.85
2023-04-16T02:50:26.458Z,69.79
2023-04-16T02:53:32.991Z,69.86
2023-04-16T02:56:38.203Z,69.87
2023-04-16T02:59:43.916Z,69.88
2023-04-16T03:02:50.676Z,69.97
2023-04-16T03:05:56.877Z,70.10
2023-04-16T03:09:02.560Z,70.13
2023-04-16T03:12:08.993Z,70.11
2023-04-16T03:15:15.174Z,69.99
2023-04-16T03:18:21.968Z,69.96
2023-04-16T03:21:29.217Z,69.99
2023-04-16T03:24:35.039Z,69.89
2023-04-16T03:27:42.218Z,69.84
2023-04-16T03:30:49.009Z,69.92
2023-04-16T03:33:55.224Z,69.98
2023-04-16T03:37:03.405Z,70.09
2023-04-16T03:40:08.956Z,70.13
2023-04-16T03:43:15.462Z,70.13
2023-04-16T03:46:22.979Z,70.15
2023-04-16T03:49:29.441Z,70.18
2023-04-16T03:52:35.179Z,70.13
2023-04-16T03:55:41.257Z,70.16
2023-04-16T03:58:49.558Z,70.08
2023-04-16T04:01:55.931Z,70.14
2023-04-16T04:05:04.261Z,70.10
2023-04-16T04:08:11.994Z,70.11
2023-04-16T04:11:18.072Z,70.14
2023-04-16T04:14:25.497Z,70.25
2023-04-16T04:17:32.891Z,70.36
2023-04-16T04:20:39.722Z,70.17
2023-04-16T04:23:49.464Z,70.04
2023-04-16T04:26:54.378Z,70.14
2023-04-16T04:29:59.805Z,70.06
2023-04-16T04:33:05.666Z,70.15
2023-04-16T04:36:11.081Z,70.06
2023-04-16T04:39:17.138Z,69.99
2023-04-16T04:42:23.003Z,70.01
2023-04-16T04:45:31.802Z,70.12
2023-04-16T04:48:37.782Z,70.06
2023-04-16T04:51:44.571Z,70.06
2023-04-16T04:54:53.354Z,69.92
2023-04-16T04:58:00.170Z,69.86
2023-04-16T05:01:05.358Z,69.74
2023-04-16T05:04:11.870Z,69.70
2023-04-16T05:07:18.534Z,69.81
2023-04-16T05:10:26.159Z,69.89
2023-04-16T05:13:25.097Z,69.96
2023-04-16T05:16:11.165Z,69.86
2023-04-16T05:19:05.304Z,69.98
2023-04-16T05:21:52.717Z,70.05
2023-04-16T05:24:47.472Z,70.20
2023-04-16T05:27:42.791Z,70.13
2023-04-16T05:30:49.009Z,69.99
2023-04-16T05:33:56.012Z,69.85
2023-04-16T05:37:03.054Z,69.82
2023-04-16T05:40:09.382Z,70.03
2023-04-16T05:43:16.555Z,70.06
2023-04-16T05:46:22.853Z,69.97
2023-04-16T05:49:31.053Z,69.90
2023-04-16T05:52:36.303Z,69.94
2023-04-16T05:55:44.175Z,69.95
2023-04-16T05:58:51.196Z,69.95
2023-04-16T06:01:59.816Z,69.99
2023-04-16T06:05:07.037Z,69.90
2023-04-16T06:08:14.377Z,69.87
2023-04-16T06:11:21.751Z,69.79
2023-04-16T06:14:28.799Z,69.74
2023-04-16T06:17:33.908Z,69.61
2023-04-16T06:20:40.694Z,69.54
2023-04-16T06:23:48.622Z,69.49
2023-04-16T06:26:54.532Z,69.45
2023-04-16T06:30:01.895Z,69.43
2023-04-16T06:33:09.542Z,69.29
2023-04-16T06:36:15.853Z,69.15
2023-04-16T06:39:22.713Z,69.32
2023-04-16T06:42:29.266Z,69.43
2023-04-16T06:45:34.876Z,69.49
2023-04-16T06:48:40.378Z,69.48
2023-04-16T06:51:47.455Z,69.27
2023-04-16T06:54:54.404Z,69.12
2023-04-16T06:58:00.520Z,68.98
2023-04-16T07:01:06.859Z,69.09
2023-04-16T07:04:13.803Z,68.92
2023-04-16T07:07:20.176Z,68.96
2023-04-16T07:10:27.908Z,68.83
2023-04-16T07:13:34.953Z,68.85
2023-04-16T07:16:42.136Z,68.82
2023-04-16T07:19:49.412Z,68.92
2023-04-16T07:22:56.400Z,68.90
2023-04-16T07:26:01.472Z,68.99
2023-04-16T07:29:11.008Z,69.08
2023-04-16T07:32:17.285Z,69.14
2023-04-16T07:35:25.523Z,69.13
2023-04-16T07:38:31.402Z,69.00
2023-04-16T07:41:37.175Z,68.85
2023-04-16T07:44:43.002Z,68.54
2023-04-16T07:47:48.217Z,68.38
2023-04-16T07:50:54.026Z,68.64
2023-04-16T07:53:59.632Z,68.97
2023-04-16T07:57:06.280Z,68.70
2023-04-16T08:00:15.775Z,68.46
2023-04-16T08:03:23.482Z,68.41
2023-04-16T08:06:30.457Z,68.26
2023-04-16T08:09:39.547Z,68.10
2023-04-16T08:12:44.372Z,67.74
2023-04-16T08:15:49.768Z,67.95
2023-04-16T08:18:55.706Z,68.01
2023-04-16T08:22:00.378Z,67.83
2023-04-16T08:25:06.625Z,67.75
2023-04-16T08:28:14.161Z,67.61
2023-04-16T08:31:20.756Z,67.39
2023-04-16T08:34:26.750Z,67.03
2023-04-16T08:37:33.380Z,66.93
2023-04-16T08:40:43.908Z,66.89
2023-04-16T08:43:50.446Z,67.17
2023-04-16T08:46:55.666Z,67.38
2023-04-16T08:50:01.637Z,67.13
2023-04-16T08:53:13.844Z,66.96
2023-04-16T08:56:21.988Z,66.66
2023-04-16T08:59:28.927Z,66.53
2023-04-16T09:02:35.499Z,66.43
2023-04-16T09:05:42.433Z,66.47
2023-04-16T09:08:50.603Z,66.55
2023-04-16T09:11:57.386Z,66.65
2023-04-16T09:15:09.011Z,66.64
2023-04-16T09:18:16.403Z,66.66
2023-04-16T09:21:25.918Z,66.41
2023-04-16T09:24:32.289Z,66.32
2023-04-16T09:27:37.750Z,65.99
2023-04-16T09:30:43.597Z,66.16
2023-04-16T09:33:51.530Z,66.18
2023-04-16T09:36:58.756Z,66.09
2023-04-16T09:40:18.301Z,66.11
2023-04-16T09:43:29.654Z,66.04
2023-04-16T09:46:46.164Z,65.90
2023-04-16T09:49:57.259Z,65.76
2023-04-16T09:53:06.316Z,65.68
2023-04-16T09:56:15.858Z,65.85
2023-04-16T09:59:22.965Z,65.78
2023-04-16T10:02:30.260Z,65.90
2023-04-16T10:05:36.855Z,65.83
2023-04-16T10:08:42.934Z,65.50
2023-04-16T10:11:48.002Z,65.49
2023-04-16T10:14:53.772Z,65.53
2023-04-16T10:18:00.635Z,65.51
2023-04-16T10:21:07.544Z,65.48
2023-04-16T10:24:12.884Z,65.47
2023-04-16T10:27:18.878Z,65.31
2023-04-16T10:30:26.106Z,65.23
2023-04-16T10:33:31.598Z,65.25
2023-04-16T10:36:41.117Z,65.28
2023-04-16T10:39:47.209Z,65.16
2023-04-16T10:42:55.249Z,65.07
2023-04-16T10:46:03.204Z,65.05
2023-04-16T10:49:11.811Z,65.06
2023-04-16T10:52:31.080Z,64.99
2023-04-16T10:55:39.746Z,65.05
2023-04-16T10:58:46.284Z,65.17
2023-04-16T11:02:00.920Z,65.23
2023-04-16T11:05:07.795Z,65.34
2023-04-16T11:08:13.537Z,65.23
2023-04-16T11:11:22.041Z,65.18
2023-04-16T11:14:28.869Z,65.11
2023-04-16T11:17:34.750Z,64.94
2023-04-16T11:20:42.401Z,64.86
2023-04-16T11:24:03.639Z,64.86
2023-04-16T11:27:11.604Z,64.83
2023-04-16T11:30:20.262Z,64.82
2023-04-16T11:33:26.974Z,64.75
2023-04-16T11:36:31.907Z,64.84
2023-04-16T11:39:38.716Z,64.85
2023-04-16T11:42:49.772Z,64.71
2023-04-16T11:46:24.560Z,64.77
2023-04-16T11:49:20.865Z,64.73
2023-04-16T11:52:26.016Z,64.77
2023-04-16T11:55:31.821Z,64.78
2023-04-16T11:58:43.248Z,64.70
2023-04-16T12:01:46.923Z,64.65
2023-04-16T12:04:53.696Z,64.62
2023-04-16T12:07:59.857Z,64.71
2023-04-16T12:11:10.741Z,64.81
2023-04-16T12:14:28.618Z,64.78
2023-04-16T12:17:38.318Z,64.75
2023-04-16T12:20:51.271Z,64.70
2023-04-16T12:24:00.094Z,64.63
2023-04-16T12:27:09.598Z,64.67
2023-04-16T12:30:21.115Z,64.65
2023-04-16T12:33:31.647Z,64.54
2023-04-16T12:36:38.694Z,64.62
2023-04-16T12:39:48.038Z,64.41
2023-04-16T12:42:59.095Z,64.24
2023-04-16T12:46:04.760Z,64.32
2023-04-16T12:49:11.383Z,64.35
2023-04-16T12:52:17.955Z,64.29
2023-04-16T12:55:24.431Z,64.16
2023-04-16T12:58:31.130Z,64.20
2023-04-16T13:01:37.554Z,64.06
2023-04-16T13:04:43.234Z,64.00
2023-04-16T13:07:51.488Z,63.98
2023-04-16T13:10:57.397Z,63.86
2023-04-16T13:14:03.272Z,63.94
2023-04-16T13:17:10.587Z,63.82
2023-04-16T13:20:10.197Z,63.81
2023-04-16T13:23:17.217Z,63.82
2023-04-16T13:26:24.183Z,63.82
2023-04-16T13:29:31.221Z,63.77
2023-04-16T13:32:37.509Z,63.70
2023-04-16T13:35:43.892Z,63.61
2023-04-16T13:38:49.772Z,63.47
2023-04-16T13:41:58.198Z,63.48
2023-04-16T13:45:06.353Z,63.29
2023-04-16T13:48:12.463Z,63.19
2023-04-16T13:51:20.446Z,63.16
2023-04-16T13:54:26.911Z,63.27
2023-04-16T13:57:34.443Z,63.19
2023-04-16T14:00:34.703Z,63.22
2023-04-16T14:03:28.694Z,63.14
2023-04-16T14:06:35.845Z,63.02
2023-04-16T14:09:42.992Z,63.02
2023-04-16T14:12:49.628Z,63.01
2023-04-16T14:15:55.510Z,62.95
2023-04-16T14:19:01.966Z,62.84
2023-04-16T14:22:09.552Z,62.78
2023-04-16T14:25:16.554Z,62.54
2023-04-16T14:28:22.919Z,62.59
2023-04-16T14:31:31.134Z,62.59
2023-04-16T14:34:37.022Z,62.40
2023-04-16T14:37:44.074Z,62.48
2023-04-16T14:40:50.316Z,62.44
2023-04-16T14:43:56.779Z,62.41
2023-04-16T14:47:03.470Z,62.39
2023-04-16T14:50:10.616Z,62.38
2023-04-16T14:53:15.947Z,62.27
2023-04-16T14:56:21.025Z,62.16
2023-04-16T14:59:27.242Z,62.06
2023-04-16T15:02:32.590Z,62.05
2023-04-16T15:05:39.565Z,61.78
2023-04-16T15:08:48.511Z,61.32
2023-04-16T15:11:53.938Z,61.04
2023-04-16T15:15:00.790Z,60.53
2023-04-16T15:18:08.076Z,60.17
2023-04-16T15:21:16.408Z,60.16
2023-04-16T15:24:23.972Z,59.89
2023-04-16T15:27:28.940Z,59.60
2023-04-16T15:30:35.799Z,59.36
2023-04-16T15:33:40.871Z,58.88
2023-04-16T15:36:49.309Z,58.07
2023-04-16T15:39:55.529Z,57.72
2023-04-16T15:43:01.067Z,57.74
2023-04-16T15:46:08.562Z,57.51
2023-04-16T15:49:15.805Z,57.20
2023-04-16T15:52:22.367Z,57.25
2023-04-16T15:55:28.372Z,56.91
2023-04-16T15:58:36.386Z,56.98
2023-04-16T16:01:42.420Z,57.08
2023-04-16T16:04:50.515Z,57.38
2023-04-16T16:07:58.771Z,57.49
2023-04-16T16:11:06.419Z,57.60
2023-04-16T16:14:12.420Z,57.53
2023-04-16T16:17:20.034Z,57.61
2023-04-16T16:20:25.768Z,57.82
2023-04-16T16:23:34.609Z,57.74
2023-04-16T16:26:40.730Z,57.85
2023-04-16T16:29:47.606Z,57.85
2023-04-16T16:32:54.940Z,57.95
2023-04-16T16:36:00.581Z,58.01
2023-04-16T16:39:07.435Z,58.10
2023-04-16T16:42:15.437Z,58.15
2023-04-16T16:45:21.664Z,58.11
2023-04-16T16:48:28.062Z,58.11
2023-04-16T16:51:34.842Z,58.10
2023-04-16T16:54:42.311Z,58.17
2023-04-16T16:57:47.967Z,58.20
2023-04-16T17:00:54.548Z,58.19
2023-04-16T17:04:01.821Z,58.17
2023-04-16T17:07:09.019Z,58.17
2023-04-16T17:10:16.111Z,58.19
2023-04-16T17:13:25.633Z,58.18
2023-04-16T17:16:31.468Z,58.24
2023-04-16T17:19:39.957Z,58.32
2023-04-16T17:22:45.030Z,58.34
2023-04-16T17:25:50.721Z,58.33
2023-04-16T17:28:58.602Z,58.40
2023-04-16T17:32:04.346Z,58.44
2023-04-16T17:35:14.340Z,58.44
2023-04-16T17:38:19.480Z,58.46
2023-04-16T17:41:26.939Z,58.45
2023-04-16T17:44:34.843Z,58.47
2023-04-16T17:47:40.177Z,58.53
2023-04-16T17:50:47.419Z,58.54
2023-04-16T17:53:53.636Z,58.59
2023-04-16T17:57:02.299Z,58.62
2023-04-16T18:00:09.146Z,58.67
2023-04-16T18:03:19.402Z,58.79
2023-04-16T18:06:26.237Z,58.89
2023-04-16T18:09:33.859Z,58.97
2023-04-16T18:12:40.174Z,59.04
2023-04-16T18:15:49.574Z,59.06
2023-04-16T18:18:58.927Z,59.13
2023-04-16T18:22:07.119Z,59.23
2023-04-16T18:25:12.614Z,59.28
2023-04-16T18:28:20.133Z,59.39
2023-04-16T18:31:25.846Z,59.46
2023-04-16T18:34:32.891Z,59.53
2023-04-16T18:37:37.926Z,59.59
2023-04-16T18:40:48.529Z,59.66
2023-04-16T18:43:54.100Z,59.78
2023-04-16T18:47:00.678Z,59.86
2023-04-16T18:50:05.865Z,60.03
2023-04-16T18:53:12.469Z,60.12
2023-04-16T18:56:18.677Z,60.23
2023-04-16T18:59:24.344Z,60.34
2023-04-16T19:02:30.216Z,60.47
2023-04-16T19:05:36.537Z,60.53
2023-04-16T19:08:42.597Z,60.61
2023-04-16T19:11:49.256Z,60.64
2023-04-16T19:14:57.642Z,60.67
2023-04-16T19:18:04.491Z,60.76
2023-04-16T19:21:17.772Z,60.81
2023-04-16T19:24:23.939Z,60.81
2023-04-16T19:27:29.246Z,60.87
2023-04-16T19:30:35.411Z,60.92
2023-04-16T19:33:41.805Z,60.97
2023-04-16T19:36:46.865Z,61.00
2023-04-16T19:39:52.153Z,61.06
2023-04-16T19:42:58.186Z,61.14
2023-04-16T19:46:05.518Z,61.21
2023-04-16T19:49:13.620Z,61.30
2023-04-16T19:52:20.217Z,61.35
2023-04-16T19:55:25.484Z,61.40
2023-04-16T19:58:32.931Z,61.50
2023-04-16T20:01:40.264Z,61.58
2023-04-16T20:04:46.606Z,61.71
2023-04-16T20:07:53.385Z,61.79
2023-04-16T20:10:59.652Z,61.88
2023-04-16T20:14:07.701Z,61.94
2023-04-16T20:17:16.201Z,61.99
2023-04-16T20:20:23.194Z,62.04
2023-04-16T20:23:28.556Z,62.10
2023-04-16T20:26:34.981Z,62.21
2023-04-16T20:29:41.373Z,62.20
2023-04-16T20:32:47.415Z,62.19
2023-04-16T20:35:53.570Z,62.25
2023-04-16T20:39:01.285Z,62.29
2023-04-16T20:42:07.332Z,62.36
2023-04-16T20:45:12.959Z,62.49
2023-04-16T20:48:20.745Z,62.55
2023-04-16T20:51:28.250Z,62.57
2023-04-16T20:54:34.381Z,62.65
2023-04-16T20:57:39.627Z,62.75
2023-04-16T21:00:45.241Z,62.79
2023-04-16T21:03:50.746Z,62.82
2023-04-16T21:07:00.132Z,62.84
2023-04-16T21:10:08.646Z,62.89
2023-04-16T21:13:20.543Z,62.90
2023-04-16T21:16:27.094Z,62.91
2023-04-16T21:19:34.429Z,62.97
2023-04-16T21:22:43.038Z,63.00
2023-04-16T21:25:49.252Z,62.99
2023-04-16T21:28:55.279Z,63.01
2023-04-16T21:32:01.647Z,63.01
2023-04-16T21:35:08.616Z,62.99
2023-04-16T21:38:14.749Z,62.99
2023-04-16T21:41:20.957Z,62.96
2023-04-16T21:44:28.540Z,62.98
2023-04-16T21:47:36.138Z,62.97
2023-04-16T21:50:43.342Z,63.00
2023-04-16T21:53:48.963Z,63.00
2023-04-16T21:56:55.350Z,62.97
2023-04-16T22:00:01.590Z,62.94
2023-04-16T22:03:07.340Z,62.93
2023-04-16T22:06:16.326Z,62.83
2023-04-16T22:09:22.480Z,62.79
2023-04-16T22:12:29.016Z,62.69
2023-04-16T22:15:34.111Z,62.65
2023-04-16T22:18:41.247Z,62.70
2023-04-16T22:21:48.947Z,62.72
2023-04-16T22:24:48.767Z,62.72
2023-04-16T22:27:56.541Z,62.65
2023-04-16T22:31:02.509Z,62.58
2023-04-16T22:34:08.407Z,62.57
2023-04-16T22:37:15.885Z,62.58
2023-04-16T22:40:24.726Z,62.54
2023-04-16T22:43:31.624Z,62.50
2023-04-16T22:46:37.684Z,62.33
2023-04-16T22:49:46.501Z,62.34
2023-04-16T22:52:53.091Z,62.30
2023-04-16T22:56:01.296Z,62.36
2023-04-16T22:59:06.520Z,62.38
2023-04-16T23:02:12.488Z,62.38
2023-04-16T23:05:18.150Z,62.36
2023-04-16T23:08:23.722Z,62.38
2023-04-16T23:11:28.853Z,62.36
2023-04-16T23:14:37.315Z,62.34
2023-04-16T23:17:36.325Z,62.35
2023-04-16T23:20:44.309Z,62.44
2023-04-16T23:23:51.638Z,62.40
2023-04-16T23:26:59.786Z,62.36
2023-04-16T23:30:05.445Z,62.31
2023-04-16T23:33:12.124Z,62.26
2023-04-16T23:36:17.405Z,62.35
2023-04-16T23:39:23.680Z,62.38
2023-04-16T23:42:30.364Z,62.42
2023-04-16T23:45:36.100Z,62.38
2023-04-16T23:48:43.223Z,62.31
2023-04-16T23:51:48.528Z,62.33
2023-04-16T23:54:47.985Z,62.36
2023-04-16T23:57:54.578Z,62.33
